Flight Track Log - Related Links

Times and Time Zones

All times are in EST time to prevent confusion due to time zone crossing. See the SWA2166 flight status page for this flight to view local times or setup timezone preferences in your user account.

Time Position Orientation Groundspeed Altitude Reporting Facility
EST Latitude Longitude Course Direction KTS MPH feet Rate Location/Type
Sat 12:05:21 AM 37.6667 -122.1500 134° Southeast 210 242 3,400  Level Northern Cal TRACON
Sat 12:06:59 AM 37.6058 -122.0456 126° Southeast 263 303 6,900 2,642 Climbing Oakland Center
Sat 12:08:00 AM 37.6308 -121.9442 73° East 296 341 10,400 2,311 Climbing Oakland Center
Sat 12:09:01 AM 37.7158 -121.9656 349° North 310 357 11,600 2,066 Climbing Oakland Center
Sat 12:10:02 AM 37.8119 -121.9731 356° North 339 390 14,600 2,607 Climbing Oakland Center
Sat 12:11:03 AM 37.9100 -121.9844 355° North 353 406 16,900 2,083 Climbing Oakland Center
Sat 12:12:03 AM 38.0111 -121.9961 355° North 363 418 18,800 1,934 Climbing Oakland Center
Sat 12:13:04 AM 38.1133 -122.0075 355° North 369 425 20,800 1,721 Climbing Oakland Center
Sat 12:14:05 AM 38.2189 -122.0197 355° North 380 437 22,300 1,820 Climbing Oakland Center
Sat 12:15:06 AM 38.3272 -122.0328 355° North 389 448 24,500 1,672 Climbing Oakland Center
Sat 12:16:07 AM 38.4372 -122.0442 355° North 395 455 25,700 1,574 Climbing Oakland Center
Sat 12:17:08 AM 38.5525 -122.0494 358° North 410 472 27,700 2,213 Climbing Oakland Center
Sat 12:18:09 AM 38.6803 -122.0575 357° North 388 447 30,200 1,672 Climbing Oakland Center
Sat 12:19:10 AM 38.7764 -122.0642 357° North 381 438 31,100 1,082 Climbing Oakland Center
Sat 12:20:11 AM 38.8833 -122.0717 357° North 383 441 32,400 1,426 Climbing Oakland Center
Sat 12:21:12 AM 38.9869 -122.0786 357° North 374 430 34,000 787 Climbing Oakland Center
Sat 12:22:13 AM 39.0875 -122.0858 357° North 362 417 34,000  Level Oakland Center
Sat 12:23:14 AM 39.1892 -122.0922 357° North 365 420 34,000  Level Oakland Center
Sat 12:24:14 AM 39.2914 -122.0989 357° North 367 422 34,000  Level Oakland Center
Sat 12:25:15 AM 39.3925 -122.1061 357° North 364 419 34,000  Level Oakland Center
Sat 12:26:16 AM 39.5072 -122.1144 357° North 362 417 34,000  Level Oakland Center
Sat 12:27:17 AM 39.6072 -122.1225 356° North 361 415 34,000  Level Oakland Center
Sat 12:28:18 AM 39.7072 -122.1286 357° North 362 417 34,000  Level Oakland Center
Sat 12:29:19 AM 39.8075 -122.1353 357° North 361 415 34,000  Level Oakland Center
Sat 12:30:20 AM 39.9075 -122.1422 357° North 362 417 34,000  Level Oakland Center
Sat 12:31:21 AM 40.0069 -122.1481 357° North 361 415 34,000  Level Oakland Center
Sat 12:32:21 AM 40.1067 -122.1553 357° North 364 419 34,000  Level Oakland Center
Sat 12:33:22 AM 40.2236 -122.1661 356° North 358 412 34,000  Level Oakland Center
Sat 12:34:23 AM 40.3228 -122.1719 357° North 360 414 34,000  Level Oakland Center
Sat 12:35:24 AM 40.4225 -122.1783 357° North 360 414 34,000  Level Oakland Center
Sat 12:36:25 AM 40.5219 -122.1853 357° North 361 415 34,000  Level Oakland Center
Sat 12:37:26 AM 40.6225 -122.1925 357° North 362 417 34,000  Level Oakland Center
Sat 12:38:27 AM 40.7225 -122.1989 357° North 361 415 34,000  Level Oakland Center
Sat 12:39:27 AM 40.8217 -122.2058 357° North 358 412 34,000  Level Oakland Center
Sat 12:40:28 AM 40.9200 -122.2142 356° North 356 410 34,000  Level Oakland Center
Sat 12:41:29 AM 41.0197 -122.2203 357° North 358 412 34,000  Level Oakland Center
Sat 12:42:30 AM 41.1186 -122.2311 355° North 357 411 34,000  Level Oakland Center
Sat 12:43:31 AM 41.2156 -122.2375 357° North 352 405 34,000  Level Oakland Center
Sat 12:44:32 AM 41.3322 -122.2467 357° North 350 403 34,000  Level Oakland Center
Sat 12:45:33 AM 41.4144 -122.2483 359° North 344 396 34,000  Level Oakland Center
Sat 12:46:33 AM 41.5128 -122.2567 356° North 353 406 34,000  Level Oakland Center
Sat 12:47:34 AM 41.6153 -122.2642 357° North 365 420 34,000  Level Oakland Center
Sat 12:48:35 AM 41.7181 -122.2744 356° North 368 423 34,000  Level Oakland Center
Sat 12:49:36 AM 41.8178 -122.2811 357° North 360 414 34,000  Level Oakland Center
Sat 12:50:37 AM 41.9164 -122.2889 357° North 354 407 34,000  Level Oakland Center
Sat 12:51:38 AM 42.0150 -122.2969 357° North 352 405 34,000  Level Oakland Center
Sat 12:52:39 AM 42.1128 -122.3047 357° North 350 403 34,000  Level Oakland Center
Sat 12:53:40 AM 42.2111 -122.3117 357° North 350 403 34,000  Level Oakland Center
Sat 12:54:41 AM 42.3108 -122.3192 357° North 356 410 34,000  Level Oakland Center
Sat 12:56:04 AM 42.4525 -122.3267 358° North 359 413 34,000  Level Seattle Center
Sat 12:57:04 AM 42.5522 -122.3344 357° North 358 412 34,000  Level Seattle Center
Sat 12:58:05 AM 42.6536 -122.3425 357° North 364 419 34,000  Level Seattle Center
Sat 12:59:06 AM 42.7739 -122.3497 357° North 365 420 34,000  Level Seattle Center
Sat 01:00:06 AM 42.8767 -122.3586 356° North 369 425 34,000  Level Seattle Center
Sat 01:01:07 AM 42.9769 -122.3669 357° North 365 420 34,000  Level Seattle Center
Sat 01:02:07 AM 43.0783 -122.3742 357° North 365 420 34,000  Level Seattle Center
Sat 01:03:08 AM 43.1797 -122.3817 357° North 365 420 34,000  Level Seattle Center
Sat 01:04:08 AM 43.2811 -122.3911 356° North 366 421 34,000  Level Seattle Center
Sat 01:05:09 AM 43.3850 -122.3981 357° North 371 427 34,000  Level Seattle Center
Sat 01:06:09 AM 43.4856 -122.4064 357° North 366 421 34,000  Level Seattle Center
Sat 01:07:10 AM 43.5886 -122.4144 357° North 372 428 34,000  Level Seattle Center
Sat 01:08:10 AM 43.6911 -122.4236 356° North 371 427 34,000  Level Seattle Center
Sat 01:09:11 AM 43.7961 -122.4311 357° North 377 434 34,000  Level Seattle Center
Sat 01:10:11 AM 43.9033 -122.4392 357° North 386 444 34,000  Level Seattle Center
Sat 01:11:11 AM 44.0086 -122.4486 356° North 381 438 34,000  Level Seattle Center
Sat 01:12:12 AM 44.1142 -122.4558 357° North 382 440 34,000  Level Seattle Center
Sat 01:13:12 AM 44.2206 -122.4653 356° North 383 441 34,000  Level Seattle Center
Sat 01:14:13 AM 44.3269 -122.4742 357° North 384 442 34,000  Level Seattle Center
Sat 01:15:13 AM 44.4347 -122.4836 356° North 387 445 34,000  Level Seattle Center
Sat 01:16:14 AM 44.5419 -122.4925 357° North 388 447 34,000  Level Seattle Center
Sat 01:17:14 AM 44.6494 -122.5008 357° North 388 447 34,000  Level Seattle Center
Sat 01:18:15 AM 44.7558 -122.5106 356° North 386 444 34,000  Level Seattle Center
Sat 01:19:15 AM 44.8700 -122.5189 357° North 383 441 34,000  Level Seattle Center
Sat 01:20:16 AM 44.9744 -122.5275 357° North 380 437 34,000  Level Seattle Center
Sat 01:21:16 AM 45.0803 -122.5367 357° North 384 442 34,000  Level Seattle Center
Sat 01:22:17 AM 45.1867 -122.5436 357° North 386 444 34,000  Level Seattle Center
Sat 01:23:17 AM 45.2936 -122.5533 356° North 387 445 34,000  Level Seattle Center
Sat 01:24:18 AM 45.4019 -122.5625 357° North 391 450 34,000  Level Seattle Center
Sat 01:25:18 AM 45.5111 -122.5717 357° North 394 453 34,000  Level Seattle Center
Sat 01:26:19 AM 45.6219 -122.5817 356° North 401 461 34,000  Level Seattle Center
Sat 01:27:19 AM 45.7564 -122.5919 357° North 404 465 34,000 -347 Level Seattle Center
Sat 01:28:20 AM 45.8656 -122.6131 352° North 398 458 33,300 -2,083 Descending Seattle Center
Sat 01:29:20 AM 45.9822 -122.6081 North 418 481 29,800 -3,074 Descending Seattle Center
Sat 01:30:21 AM 46.0992 -122.6022 North 420 483 27,100 -2,380 Descending Seattle Center
Sat 01:31:21 AM 46.2025 -122.5989 North 406 467 25,000 -2,182 Descending Seattle Center
Sat 01:32:22 AM 46.3089 -122.5936 North 387 445 22,700 -2,231 Descending Seattle Center
Sat 01:33:22 AM 46.4111 -122.5903 North 371 427 20,500 -2,132 Descending Seattle Center
Sat 01:34:23 AM 46.5100 -122.5864 North 357 411 18,400 -2,132 Descending Seattle Center
Sat 01:35:23 AM 46.6058 -122.5839 North 341 392 16,200 -2,132 Descending Seattle Center
Sat 01:36:24 AM 46.7033 -122.5786 North 344 396 14,100 -2,182 Descending Seattle Center
Sat 01:37:24 AM 46.8111 -122.5767 North 341 392 11,800 -2,170 Descending Seattle Center
Sat 01:37:58 AM 46.8675 -122.5775 359° North 335 386 10,700 -1,279 Descending Seattle Center
Sat 01:38:25 AM 46.9006 -122.5728 North 321 369 10,500 -667 Descending Seattle Center
Sat 01:38:34 AM 46.9114 -122.5669 20° North 305 351 10,300 -1,200 Descending Seattle Center
Sat 01:39:25 AM 46.9642 -122.4967 42° Northeast 274 315 9,300 -1,091 Descending Seattle Center
Sat 01:39:29 AM 46.9625 -122.4969 186° South 260 299 9,300 -1,279 Level Seattle Center
Sat 01:40:26 AM 47.0231 -122.4331 36° Northeast 267 307 8,000 -1,364 Descending Seattle Center
Sat 01:40:35 AM 47.0333 -122.4261 25° Northeast 261 300 7,800 -1,400 Descending Seattle Center
Sat 01:41:26 AM 47.0872 -122.3794 31° Northeast 268 308 6,600 -1,418 Descending Seattle Center
Sat 01:41:30 AM 47.0922 -122.3778 13° North 264 304 6,500 -1,574 Descending Seattle Center
Sat 01:42:27 AM 47.1536 -122.3322 27° Northeast 268 308 5,000 -1,574 Descending Seattle Center
Sat 01:42:31 AM 47.1583 -122.3319 North 268 308 4,900 -800 Descending Seattle Center
Sat 01:43:27 AM 47.2206 -122.3111 13° North 250 288 4,200 -700 Descending Seattle Center
Sat 01:43:31 AM 47.2250 -122.3147 331° Northwest 233 268 4,200 -393 Level Seattle Center
Sat 01:44:28 AM 47.2742 -122.3114 North 192 221 3,800 -492 Descending Seattle Center
Sat 01:44:32 AM 47.2758 -122.3131 326° Northwest 166 191 3,700 -900 Descending Seattle Center
Sat 01:45:28 AM 47.3192 -122.3119 North 167 192 2,900 -885 Descending Seattle Center
Sat 01:45:33 AM 47.3206 -122.3144 309° West 151 174 2,800 -787 Descending Seattle Center
Sat 01:46:29 AM 47.3578 -122.3119 North 143 165 2,100 -700 Descending Seattle Center
Sat 01:46:33 AM 47.3600 -122.3125 350° North 137 158 2,100 -700 Level Seattle Center
Sat 01:47:29 AM 47.3936 -122.3119 North 131 151 1,400 -806 Descending Seattle Center
Sat 01:47:40 AM 47.4003 -122.3133 352° North 124 143 1,200 -787 Descending Seattle Center
Sat 01:48:30 AM 47.4292 -122.3117 North 120 138 600 -689 Descending Seattle Center
Sat 01:48:41 AM 47.4333 -122.3114 North 119 137 500 -200 Descending Seattle Center
Sat 01:49:30 AM 47.4617 -122.3139 357° North 123 142 400 -122 Descending Seattle Center
Sat 01:51:00 AM 47.4499 -122.3118 132° Southeast  Level Estimated

Login

Don't have an account? Register now (free) for customized features, flight alerts, and more!